sensor_id;sensor_type;location;lat;lon;timestamp;temperature;humidity
78490;DHT22;67776;52.012;4.736;2023-02-12T00:00:06;7.71;82.81
78490;DHT22;67776;52.012;4.736;2023-02-12T00:02:32;7.73;82.85
78490;DHT22;67776;52.012;4.736;2023-02-12T00:04:57;7.77;82.66
78490;DHT22;67776;52.012;4.736;2023-02-12T00:07:22;7.69;83.18
78490;DHT22;67776;52.012;4.736;2023-02-12T00:09:48;7.69;83.42
78490;DHT22;67776;52.012;4.736;2023-02-12T00:12:13;7.67;83.47
78490;DHT22;67776;52.012;4.736;2023-02-12T00:14:38;7.67;83.59
78490;DHT22;67776;52.012;4.736;2023-02-12T00:17:04;7.56;84.12
78490;DHT22;67776;52.012;4.736;2023-02-12T00:19:30;7.47;84.61
78490;DHT22;67776;52.012;4.736;2023-02-12T00:21:55;7.46;84.43
78490;DHT22;67776;52.012;4.736;2023-02-12T00:24:21;7.47;84.34
78490;DHT22;67776;52.012;4.736;2023-02-12T00:26:46;7.45;84.26
78490;DHT22;67776;52.012;4.736;2023-02-12T00:29:13;7.40;84.51
78490;DHT22;67776;52.012;4.736;2023-02-12T00:31:38;7.39;84.38
78490;DHT22;67776;52.012;4.736;2023-02-12T00:34:04;7.42;84.33
78490;DHT22;67776;52.012;4.736;2023-02-12T00:36:30;7.35;84.66
78490;DHT22;67776;52.012;4.736;2023-02-12T00:38:56;7.38;84.32
78490;DHT22;67776;52.012;4.736;2023-02-12T00:41:22;7.43;84.07
78490;DHT22;67776;52.012;4.736;2023-02-12T00:43:48;7.46;83.93
78490;DHT22;67776;52.012;4.736;2023-02-12T00:46:14;7.46;83.89
78490;DHT22;67776;52.012;4.736;2023-02-12T00:48:39;7.47;83.64
78490;DHT22;67776;52.012;4.736;2023-02-12T00:51:05;7.57;83.16
78490;DHT22;67776;52.012;4.736;2023-02-12T00:53:31;7.56;83.42
78490;DHT22;67776;52.012;4.736;2023-02-12T00:55:57;7.56;83.27
78490;DHT22;67776;52.012;4.736;2023-02-12T00:58:23;7.57;83.39
78490;DHT22;67776;52.012;4.736;2023-02-12T01:00:48;7.46;84.06
78490;DHT22;67776;52.012;4.736;2023-02-12T01:03:14;7.52;83.72
78490;DHT22;67776;52.012;4.736;2023-02-12T01:05:40;7.50;83.61
78490;DHT22;67776;52.012;4.736;2023-02-12T01:08:05;7.46;83.74
78490;DHT22;67776;52.012;4.736;2023-02-12T01:10:31;7.50;83.69
78490;DHT22;67776;52.012;4.736;2023-02-12T01:12:56;7.49;83.57
78490;DHT22;67776;52.012;4.736;2023-02-12T01:15:21;7.40;84.09
78490;DHT22;67776;52.012;4.736;2023-02-12T01:17:47;7.38;84.23
78490;DHT22;67776;52.012;4.736;2023-02-12T01:20:15;7.39;84.11
78490;DHT22;67776;52.012;4.736;2023-02-12T01:22:44;7.39;84.05
78490;DHT22;67776;52.012;4.736;2023-02-12T01:25:10;7.38;84.06
78490;DHT22;67776;52.012;4.736;2023-02-12T01:27:35;7.38;84.01
78490;DHT22;67776;52.012;4.736;2023-02-12T01:30:01;7.32;84.34
78490;DHT22;67776;52.012;4.736;2023-02-12T01:32:26;7.29;84.68
78490;DHT22;67776;52.012;4.736;2023-02-12T01:34:52;7.32;84.46
78490;DHT22;67776;52.012;4.736;2023-02-12T01:37:17;7.33;84.14
78490;DHT22;67776;52.012;4.736;2023-02-12T01:39:42;7.29;84.46
78490;DHT22;67776;52.012;4.736;2023-02-12T01:42:13;7.28;84.73
78490;DHT22;67776;52.012;4.736;2023-02-12T01:44:44;7.30;84.96
78490;DHT22;67776;52.012;4.736;2023-02-12T01:47:15;7.32;84.95
78490;DHT22;67776;52.012;4.736;2023-02-12T01:49:44;7.30;84.89
78490;DHT22;67776;52.012;4.736;2023-02-12T01:52:19;7.28;84.97
78490;DHT22;67776;52.012;4.736;2023-02-12T01:54:47;7.28;84.73
78490;DHT22;67776;52.012;4.736;2023-02-12T01:57:14;7.28;84.38
78490;DHT22;67776;52.012;4.736;2023-02-12T01:59:42;7.30;84.40
78490;DHT22;67776;52.012;4.736;2023-02-12T02:02:09;7.33;84.22
78490;DHT22;67776;52.012;4.736;2023-02-12T02:04:39;7.28;84.42
78490;DHT22;67776;52.012;4.736;2023-02-12T02:07:07;7.20;84.95
78490;DHT22;67776;52.012;4.736;2023-02-12T02:09:35;7.12;85.40
78490;DHT22;67776;52.012;4.736;2023-02-12T02:12:01;7.16;85.00
78490;DHT22;67776;52.012;4.736;2023-02-12T02:14:46;7.07;85.40
78490;DHT22;67776;52.012;4.736;2023-02-12T02:28:57;7.07;85.09
78490;DHT22;67776;52.012;4.736;2023-02-12T02:34:20;7.11;84.44
78490;DHT22;67776;52.012;4.736;2023-02-12T02:36:50;7.09;85.29
78490;DHT22;67776;52.012;4.736;2023-02-12T02:41:59;7.11;84.65
78490;DHT22;67776;52.012;4.736;2023-02-12T02:44:35;7.04;85.05
78490;DHT22;67776;52.012;4.736;2023-02-12T02:47:03;7.07;84.93
78490;DHT22;67776;52.012;4.736;2023-02-12T02:49:43;7.05;85.01
78490;DHT22;67776;52.012;4.736;2023-02-12T02:52:23;7.02;85.01
78490;DHT22;67776;52.012;4.736;2023-02-12T02:54:54;7.05;85.44
78490;DHT22;67776;52.012;4.736;2023-02-12T02:57:27;7.04;85.44
78490;DHT22;67776;52.012;4.736;2023-02-12T02:59:57;7.02;85.49
78490;DHT22;67776;52.012;4.736;2023-02-12T03:02:31;7.02;84.60
78490;DHT22;67776;52.012;4.736;2023-02-12T03:05:01;7.05;84.37
78490;DHT22;67776;52.012;4.736;2023-02-12T03:07:31;7.09;83.98
78490;DHT22;67776;52.012;4.736;2023-02-12T03:10:03;7.12;83.72
78490;DHT22;67776;52.012;4.736;2023-02-12T03:12:37;7.07;83.74
78490;DHT22;67776;52.012;4.736;2023-02-12T03:15:12;7.09;83.56
78490;DHT22;67776;52.012;4.736;2023-02-12T03:17:41;7.05;83.73
78490;DHT22;67776;52.012;4.736;2023-02-12T03:20:41;7.05;83.67
78490;DHT22;67776;52.012;4.736;2023-02-12T03:23:14;7.02;83.81
78490;DHT22;67776;52.012;4.736;2023-02-12T03:25:49;6.97;84.27
78490;DHT22;67776;52.012;4.736;2023-02-12T03:28:23;6.97;84.60
78490;DHT22;67776;52.012;4.736;2023-02-12T03:33:33;7.04;84.23
78490;DHT22;67776;52.012;4.736;2023-02-12T03:36:03;6.94;84.64
78490;DHT22;67776;52.012;4.736;2023-02-12T03:38:41;6.87;84.99
78490;DHT22;67776;52.012;4.736;2023-02-12T03:41:12;6.88;85.11
78490;DHT22;67776;52.012;4.736;2023-02-12T03:46:49;6.80;85.35
78490;DHT22;67776;52.012;4.736;2023-02-12T03:51:44;6.80;84.65
78490;DHT22;67776;52.012;4.736;2023-02-12T03:54:11;6.81;84.92
78490;DHT22;67776;52.012;4.736;2023-02-12T03:56:59;6.85;84.86
78490;DHT22;67776;52.012;4.736;2023-02-12T03:59:25;6.83;84.92
78490;DHT22;67776;52.012;4.736;2023-02-12T04:01:53;6.81;84.72
78490;DHT22;67776;52.012;4.736;2023-02-12T04:04:20;6.79;85.07
78490;DHT22;67776;52.012;4.736;2023-02-12T04:06:47;6.73;85.96
78490;DHT22;67776;52.012;4.736;2023-02-12T04:09:14;6.73;85.99
78490;DHT22;67776;52.012;4.736;2023-02-12T04:12:06;6.80;85.04
78490;DHT22;67776;52.012;4.736;2023-02-12T04:14:50;6.83;84.81
78490;DHT22;67776;52.012;4.736;2023-02-12T04:23:17;6.77;85.25
78490;DHT22;67776;52.012;4.736;2023-02-12T04:31:29;6.72;85.70
78490;DHT22;67776;52.012;4.736;2023-02-12T04:36:28;6.69;85.65
78490;DHT22;67776;52.012;4.736;2023-02-12T04:39:02;6.70;85.37
78490;DHT22;67776;52.012;4.736;2023-02-12T04:41:30;6.66;85.75
78490;DHT22;67776;52.012;4.736;2023-02-12T04:43:56;6.69;85.65
78490;DHT22;67776;52.012;4.736;2023-02-12T04:46:21;6.72;85.04
78490;DHT22;67776;52.012;4.736;2023-02-12T04:48:56;6.63;85.78
78490;DHT22;67776;52.012;4.736;2023-02-12T04:51:22;6.70;85.98
78490;DHT22;67776;52.012;4.736;2023-02-12T04:53:48;6.69;85.91
78490;DHT22;67776;52.012;4.736;2023-02-12T04:56:14;6.70;85.52
78490;DHT22;67776;52.012;4.736;2023-02-12T04:58:40;6.73;85.41
78490;DHT22;67776;52.012;4.736;2023-02-12T05:01:06;6.69;85.78
78490;DHT22;67776;52.012;4.736;2023-02-12T05:03:31;6.69;85.57
78490;DHT22;67776;52.012;4.736;2023-02-12T05:06:02;6.73;86.02
78490;DHT22;67776;52.012;4.736;2023-02-12T05:08:27;6.76;85.05
78490;DHT22;67776;52.012;4.736;2023-02-12T05:10:53;6.73;85.20
78490;DHT22;67776;52.012;4.736;2023-02-12T05:13:18;6.74;85.62
78490;DHT22;67776;52.012;4.736;2023-02-12T05:15:43;6.76;85.79
78490;DHT22;67776;52.012;4.736;2023-02-12T05:18:08;6.72;85.70
78490;DHT22;67776;52.012;4.736;2023-02-12T05:20:34;6.73;85.35
78490;DHT22;67776;52.012;4.736;2023-02-12T05:22:59;6.69;85.08
78490;DHT22;67776;52.012;4.736;2023-02-12T05:25:27;6.72;85.10
78490;DHT22;67776;52.012;4.736;2023-02-12T05:27:52;6.67;85.49
78490;DHT22;67776;52.012;4.736;2023-02-12T05:30:18;6.64;85.49
78490;DHT22;67776;52.012;4.736;2023-02-12T05:32:43;6.70;85.10
78490;DHT22;67776;52.012;4.736;2023-02-12T05:35:08;6.69;85.18
78490;DHT22;67776;52.012;4.736;2023-02-12T05:37:34;6.70;84.84
78490;DHT22;67776;52.012;4.736;2023-02-12T05:40:02;6.67;85.45
78490;DHT22;67776;52.012;4.736;2023-02-12T05:42:28;6.69;86.15
78490;DHT22;67776;52.012;4.736;2023-02-12T05:44:53;6.63;86.07
78490;DHT22;67776;52.012;4.736;2023-02-12T05:47:19;6.63;85.73
78490;DHT22;67776;52.012;4.736;2023-02-12T05:49:44;6.69;85.10
78490;DHT22;67776;52.012;4.736;2023-02-12T05:52:09;6.66;85.24
78490;DHT22;67776;52.012;4.736;2023-02-12T05:54:34;6.67;85.42
78490;DHT22;67776;52.012;4.736;2023-02-12T05:57:00;6.64;85.60
78490;DHT22;67776;52.012;4.736;2023-02-12T05:59:25;6.69;85.45
78490;DHT22;67776;52.012;4.736;2023-02-12T06:01:51;6.70;85.35
78490;DHT22;67776;52.012;4.736;2023-02-12T06:04:25;6.70;85.70
78490;DHT22;67776;52.012;4.736;2023-02-12T06:06:52;6.69;85.87
78490;DHT22;67776;52.012;4.736;2023-02-12T06:09:18;6.69;85.36
78490;DHT22;67776;52.012;4.736;2023-02-12T06:11:43;6.69;85.13
78490;DHT22;67776;52.012;4.736;2023-02-12T06:14:12;6.67;85.13
78490;DHT22;67776;52.012;4.736;2023-02-12T06:16:38;6.67;85.26
78490;DHT22;67776;52.012;4.736;2023-02-12T06:19:04;6.66;85.11
78490;DHT22;67776;52.012;4.736;2023-02-12T06:21:30;6.64;85.92
78490;DHT22;67776;52.012;4.736;2023-02-12T06:23:56;6.67;85.48
78490;DHT22;67776;52.012;4.736;2023-02-12T06:26:22;6.62;85.62
78490;DHT22;67776;52.012;4.736;2023-02-12T06:28:48;6.66;85.04
78490;DHT22;67776;52.012;4.736;2023-02-12T06:31:22;6.66;85.31
78490;DHT22;67776;52.012;4.736;2023-02-12T06:33:48;6.64;84.84
78490;DHT22;67776;52.012;4.736;2023-02-12T06:36:14;6.60;85.25
78490;DHT22;67776;52.012;4.736;2023-02-12T06:38:40;6.54;85.75
78490;DHT22;67776;52.012;4.736;2023-02-12T06:41:05;6.62;85.51
78490;DHT22;67776;52.012;4.736;2023-02-12T06:43:30;6.66;85.04
78490;DHT22;67776;52.012;4.736;2023-02-12T06:45:59;6.58;85.34
78490;DHT22;67776;52.012;4.736;2023-02-12T06:48:25;6.58;85.58
78490;DHT22;67776;52.012;4.736;2023-02-12T06:50:50;6.66;85.10
78490;DHT22;67776;52.012;4.736;2023-02-12T06:53:15;6.63;85.06
78490;DHT22;67776;52.012;4.736;2023-02-12T06:55:41;6.58;85.37
78490;DHT22;67776;52.012;4.736;2023-02-12T06:58:06;6.60;85.17
78490;DHT22;67776;52.012;4.736;2023-02-12T07:00:31;6.58;85.32
78490;DHT22;67776;52.012;4.736;2023-02-12T07:02:57;6.57;85.41
78490;DHT22;67776;52.012;4.736;2023-02-12T07:05:23;6.57;85.11
78490;DHT22;67776;52.012;4.736;2023-02-12T07:07:48;6.57;85.18
78490;DHT22;67776;52.012;4.736;2023-02-12T07:10:14;6.58;85.34
78490;DHT22;67776;52.012;4.736;2023-02-12T07:12:39;6.56;85.22
78490;DHT22;67776;52.012;4.736;2023-02-12T07:15:05;6.57;85.34
78490;DHT22;67776;52.012;4.736;2023-02-12T07:17:30;6.56;85.31
78490;DHT22;67776;52.012;4.736;2023-02-12T07:19:56;6.56;85.55
78490;DHT22;67776;52.012;4.736;2023-02-12T07:22:21;6.56;85.67
78490;DHT22;67776;52.012;4.736;2023-02-12T07:24:47;6.62;86.05
78490;DHT22;67776;52.012;4.736;2023-02-12T07:27:13;6.45;86.24
78490;DHT22;67776;52.012;4.736;2023-02-12T07:29:39;6.52;86.11
78490;DHT22;67776;52.012;4.736;2023-02-12T07:32:04;6.52;85.84
78490;DHT22;67776;52.012;4.736;2023-02-12T07:34:30;6.56;85.79
78490;DHT22;67776;52.012;4.736;2023-02-12T07:36:55;6.53;85.83
78490;DHT22;67776;52.012;4.736;2023-02-12T07:39:20;6.52;86.14
78490;DHT22;67776;52.012;4.736;2023-02-12T07:41:46;6.56;86.37
78490;DHT22;67776;52.012;4.736;2023-02-12T07:44:11;6.57;85.71
78490;DHT22;67776;52.012;4.736;2023-02-12T07:46:42;6.57;85.58
78490;DHT22;67776;52.012;4.736;2023-02-12T07:49:11;6.60;85.85
78490;DHT22;67776;52.012;4.736;2023-02-12T07:51:37;6.57;85.82
78490;DHT22;67776;52.012;4.736;2023-02-12T07:54:03;6.57;86.49
78490;DHT22;67776;52.012;4.736;2023-02-12T07:56:31;6.60;86.10
78490;DHT22;67776;52.012;4.736;2023-02-12T07:58:58;6.58;86.39
78490;DHT22;67776;52.012;4.736;2023-02-12T08:01:31;6.58;86.18
78490;DHT22;67776;52.012;4.736;2023-02-12T08:03:59;6.58;86.08
78490;DHT22;67776;52.012;4.736;2023-02-12T08:06:27;6.62;85.99
78490;DHT22;67776;52.012;4.736;2023-02-12T08:08:55;6.66;85.26
78490;DHT22;67776;52.012;4.736;2023-02-12T08:11:21;6.64;85.35
78490;DHT22;67776;52.012;4.736;2023-02-12T08:13:46;6.64;85.47
78490;DHT22;67776;52.012;4.736;2023-02-12T08:16:14;6.67;85.49
78490;DHT22;67776;52.012;4.736;2023-02-12T08:18:41;6.76;84.94
78490;DHT22;67776;52.012;4.736;2023-02-12T08:21:09;6.79;84.83
78490;DHT22;67776;52.012;4.736;2023-02-12T08:23:35;6.83;84.68
78490;DHT22;67776;52.012;4.736;2023-02-12T08:26:15;6.87;84.57
78490;DHT22;67776;52.012;4.736;2023-02-12T08:28:43;6.92;84.38
78490;DHT22;67776;52.012;4.736;2023-02-12T08:31:12;6.92;84.03
78490;DHT22;67776;52.012;4.736;2023-02-12T08:33:37;6.92;84.02
78490;DHT22;67776;52.012;4.736;2023-02-12T08:36:05;6.98;83.97
78490;DHT22;67776;52.012;4.736;2023-02-12T08:38:32;6.98;83.85
78490;DHT22;67776;52.012;4.736;2023-02-12T08:41:06;7.01;83.92
78490;DHT22;67776;52.012;4.736;2023-02-12T08:43:32;7.00;83.92
78490;DHT22;67776;52.012;4.736;2023-02-12T08:46:05;7.05;83.79
78490;DHT22;67776;52.012;4.736;2023-02-12T08:48:31;7.02;84.11
78490;DHT22;67776;52.012;4.736;2023-02-12T08:51:03;7.04;83.79
78490;DHT22;67776;52.012;4.736;2023-02-12T08:53:28;7.09;83.35
78490;DHT22;67776;52.012;4.736;2023-02-12T08:55:54;7.05;83.67
78490;DHT22;67776;52.012;4.736;2023-02-12T08:58:19;7.07;83.44
78490;DHT22;67776;52.012;4.736;2023-02-12T09:00:44;7.11;83.37
78490;DHT22;67776;52.012;4.736;2023-02-12T09:03:10;7.09;82.97
78490;DHT22;67776;52.012;4.736;2023-02-12T09:05:41;7.09;83.45
78490;DHT22;67776;52.012;4.736;2023-02-12T09:08:07;7.15;83.45
78490;DHT22;67776;52.012;4.736;2023-02-12T09:10:33;7.18;83.24
78490;DHT22;67776;52.012;4.736;2023-02-12T09:12:59;7.22;83.38
78490;DHT22;67776;52.012;4.736;2023-02-12T09:15:24;7.25;82.99
78490;DHT22;67776;52.012;4.736;2023-02-12T09:17:49;7.25;83.18
78490;DHT22;67776;52.012;4.736;2023-02-12T09:20:15;7.28;82.87
78490;DHT22;67776;52.012;4.736;2023-02-12T09:22:40;7.33;82.35
78490;DHT22;67776;52.012;4.736;2023-02-12T09:25:06;7.32;83.06
78490;DHT22;67776;52.012;4.736;2023-02-12T09:27:31;7.30;83.16
78490;DHT22;67776;52.012;4.736;2023-02-12T09:29:56;7.43;82.25
78490;DHT22;67776;52.012;4.736;2023-02-12T09:32:22;7.45;82.52
78490;DHT22;67776;52.012;4.736;2023-02-12T09:34:47;7.43;82.96
78490;DHT22;67776;52.012;4.736;2023-02-12T09:37:12;7.42;83.01
78490;DHT22;67776;52.012;4.736;2023-02-12T09:39:37;7.36;83.26
78490;DHT22;67776;52.012;4.736;2023-02-12T09:45:21;7.40;82.76
78490;DHT22;67776;52.012;4.736;2023-02-12T09:52:54;7.50;82.44
78490;DHT22;67776;52.012;4.736;2023-02-12T09:55:25;7.55;82.25
78490;DHT22;67776;52.012;4.736;2023-02-12T09:57:52;7.62;82.18
78490;DHT22;67776;52.012;4.736;2023-02-12T10:00:22;7.63;82.35
78490;DHT22;67776;52.012;4.736;2023-02-12T10:02:50;7.59;82.66
78490;DHT22;67776;52.012;4.736;2023-02-12T10:05:19;7.63;82.83
78490;DHT22;67776;52.012;4.736;2023-02-12T10:11:00;7.73;83.09
78490;DHT22;67776;52.012;4.736;2023-02-12T10:26:48;8.04;81.71
78490;DHT22;67776;52.012;4.736;2023-02-12T10:29:17;8.05;81.15
78490;DHT22;67776;52.012;4.736;2023-02-12T10:32:05;8.06;80.98
78490;DHT22;67776;52.012;4.736;2023-02-12T10:34:35;8.16;79.27
78490;DHT22;67776;52.012;4.736;2023-02-12T10:37:27;8.28;78.53
78490;DHT22;67776;52.012;4.736;2023-02-12T10:40:00;8.29;79.47
78490;DHT22;67776;52.012;4.736;2023-02-12T10:42:37;8.33;78.89
78490;DHT22;67776;52.012;4.736;2023-02-12T10:45:03;8.28;79.16
78490;DHT22;67776;52.012;4.736;2023-02-12T10:47:28;8.28;78.31
78490;DHT22;67776;52.012;4.736;2023-02-12T10:49:58;8.32;77.64
78490;DHT22;67776;52.012;4.736;2023-02-12T10:55:30;8.42;78.58
78490;DHT22;67776;52.012;4.736;2023-02-12T10:58:24;8.45;77.92
78490;DHT22;67776;52.012;4.736;2023-02-12T11:00:56;8.46;78.63
78490;DHT22;67776;52.012;4.736;2023-02-12T11:03:26;8.47;78.08
78490;DHT22;67776;52.012;4.736;2023-02-12T11:05:52;8.43;78.50
78490;DHT22;67776;52.012;4.736;2023-02-12T11:08:30;8.47;78.87
78490;DHT22;67776;52.012;4.736;2023-02-12T11:11:11;8.47;78.65
78490;DHT22;67776;52.012;4.736;2023-02-12T11:13:39;8.47;78.76
78490;DHT22;67776;52.012;4.736;2023-02-12T11:16:05;8.49;78.19
78490;DHT22;67776;52.012;4.736;2023-02-12T11:18:32;8.49;78.26
78490;DHT22;67776;52.012;4.736;2023-02-12T11:21:07;8.46;78.62
78490;DHT22;67776;52.012;4.736;2023-02-12T11:23:36;8.47;78.70
78490;DHT22;67776;52.012;4.736;2023-02-12T11:31:21;8.52;78.37
78490;DHT22;67776;52.012;4.736;2023-02-12T11:34:14;8.47;78.71
78490;DHT22;67776;52.012;4.736;2023-02-12T11:36:46;8.56;78.79
78490;DHT22;67776;52.012;4.736;2023-02-12T11:39:23;8.56;78.94
78490;DHT22;67776;52.012;4.736;2023-02-12T11:41:57;8.56;77.69
78490;DHT22;67776;52.012;4.736;2023-02-12T11:44:28;8.49;78.09
78490;DHT22;67776;52.012;4.736;2023-02-12T11:47:02;8.49;78.41
78490;DHT22;67776;52.012;4.736;2023-02-12T11:49:38;8.52;78.43
78490;DHT22;67776;52.012;4.736;2023-02-12T11:52:05;8.53;78.69
78490;DHT22;67776;52.012;4.736;2023-02-12T11:54:40;8.56;78.56
78490;DHT22;67776;52.012;4.736;2023-02-12T11:57:06;8.50;77.57
78490;DHT22;67776;52.012;4.736;2023-02-12T11:59:35;8.47;77.98
78490;DHT22;67776;52.012;4.736;2023-02-12T12:02:13;8.52;78.61
78490;DHT22;67776;52.012;4.736;2023-02-12T12:04:40;8.53;78.50
78490;DHT22;67776;52.012;4.736;2023-02-12T12:07:14;8.52;78.97
78490;DHT22;67776;52.012;4.736;2023-02-12T12:09:47;8.53;78.96
78490;DHT22;67776;52.012;4.736;2023-02-12T12:12:24;8.54;77.58
78490;DHT22;67776;52.012;4.736;2023-02-12T12:14:58;8.61;77.20
78490;DHT22;67776;52.012;4.736;2023-02-12T12:20:40;8.63;76.73
78490;DHT22;67776;52.012;4.736;2023-02-12T12:23:34;8.63;76.55
78490;DHT22;67776;52.012;4.736;2023-02-12T12:26:08;8.63;76.01
78490;DHT22;67776;52.012;4.736;2023-02-12T12:31:18;8.66;76.31
78490;DHT22;67776;52.012;4.736;2023-02-12T12:59:32;8.80;74.69
78490;DHT22;67776;52.012;4.736;2023-02-12T13:02:34;8.81;73.44
78490;DHT22;67776;52.012;4.736;2023-02-12T13:10:59;8.87;72.05
78490;DHT22;67776;52.012;4.736;2023-02-12T13:13:38;8.83;71.78
78490;DHT22;67776;52.012;4.736;2023-02-12T13:21:33;8.85;70.45
78490;DHT22;67776;52.012;4.736;2023-02-12T13:29:15;8.78;70.87
78490;DHT22;67776;52.012;4.736;2023-02-12T13:34:28;8.74;71.78
78490;DHT22;67776;52.012;4.736;2023-02-12T13:36:56;8.71;70.75
78490;DHT22;67776;52.012;4.736;2023-02-12T13:39:29;8.67;71.43
78490;DHT22;67776;52.012;4.736;2023-02-12T13:42:20;8.80;70.43
78490;DHT22;67776;52.012;4.736;2023-02-12T13:44:56;8.70;71.18
78490;DHT22;67776;52.012;4.736;2023-02-12T13:50:36;8.84;70.58
78490;DHT22;67776;52.012;4.736;2023-02-12T13:54:03;8.64;72.56
78490;DHT22;67776;52.012;4.736;2023-02-12T14:01:58;8.81;70.24
78490;DHT22;67776;52.012;4.736;2023-02-12T14:04:30;8.83;70.62
78490;DHT22;67776;52.012;4.736;2023-02-12T14:07:07;8.66;72.09
78490;DHT22;67776;52.012;4.736;2023-02-12T14:09:45;8.67;71.03
78490;DHT22;67776;52.012;4.736;2023-02-12T14:14:50;8.64;71.36
78490;DHT22;67776;52.012;4.736;2023-02-12T14:20:23;8.68;71.35
78490;DHT22;67776;52.012;4.736;2023-02-12T14:35:40;8.63;71.69
78490;DHT22;67776;52.012;4.736;2023-02-12T14:40:43;8.60;72.46
78490;DHT22;67776;52.012;4.736;2023-02-12T14:48:55;8.63;72.68
78490;DHT22;67776;52.012;4.736;2023-02-12T14:51:42;8.54;74.07
78490;DHT22;67776;52.012;4.736;2023-02-12T14:54:20;8.57;72.81
78490;DHT22;67776;52.012;4.736;2023-02-12T14:56:51;8.56;73.21
78490;DHT22;67776;52.012;4.736;2023-02-12T14:59:19;8.56;73.73
78490;DHT22;67776;52.012;4.736;2023-02-12T15:01:47;8.53;72.44
78490;DHT22;67776;52.012;4.736;2023-02-12T15:04:25;8.49;72.54
78490;DHT22;67776;52.012;4.736;2023-02-12T15:06:56;8.52;71.96
78490;DHT22;67776;52.012;4.736;2023-02-12T15:09:30;8.47;72.94
78490;DHT22;67776;52.012;4.736;2023-02-12T15:12:29;8.46;72.79
78490;DHT22;67776;52.012;4.736;2023-02-12T15:15:04;8.40;73.53
78490;DHT22;67776;52.012;4.736;2023-02-12T15:17:33;8.42;72.94
78490;DHT22;67776;52.012;4.736;2023-02-12T15:20:04;8.42;72.65
78490;DHT22;67776;52.012;4.736;2023-02-12T15:22:35;8.38;73.18
78490;DHT22;67776;52.012;4.736;2023-02-12T15:25:33;8.39;73.29
78490;DHT22;67776;52.012;4.736;2023-02-12T15:28:02;8.33;73.12
78490;DHT22;67776;52.012;4.736;2023-02-12T15:30:31;8.33;72.80
78490;DHT22;67776;52.012;4.736;2023-02-12T15:32:59;8.29;72.54
78490;DHT22;67776;52.012;4.736;2023-02-12T15:35:28;8.26;72.10
78490;DHT22;67776;52.012;4.736;2023-02-12T15:37:55;8.26;71.59
78490;DHT22;67776;52.012;4.736;2023-02-12T15:40:21;8.28;72.34
78490;DHT22;67776;52.012;4.736;2023-02-12T15:43:02;8.28;71.76
78490;DHT22;67776;52.012;4.736;2023-02-12T15:45:33;8.22;71.87
78490;DHT22;67776;52.012;4.736;2023-02-12T15:48:00;8.26;71.69
78490;DHT22;67776;52.012;4.736;2023-02-12T15:50:27;8.26;70.59
78490;DHT22;67776;52.012;4.736;2023-02-12T15:52:53;8.26;72.65
78490;DHT22;67776;52.012;4.736;2023-02-12T15:55:22;8.32;73.81
78490;DHT22;67776;52.012;4.736;2023-02-12T15:57:51;8.35;72.80
78490;DHT22;67776;52.012;4.736;2023-02-12T16:00:39;8.35;72.59
78490;DHT22;67776;52.012;4.736;2023-02-12T16:05:47;8.33;73.04
78490;DHT22;67776;52.012;4.736;2023-02-12T16:08:15;8.33;74.78
78490;DHT22;67776;52.012;4.736;2023-02-12T16:10:43;8.26;72.54
78490;DHT22;67776;52.012;4.736;2023-02-12T16:13:15;8.19;71.41
78490;DHT22;67776;52.012;4.736;2023-02-12T16:15:41;8.15;71.51
78490;DHT22;67776;52.012;4.736;2023-02-12T16:18:21;8.19;73.55
78490;DHT22;67776;52.012;4.736;2023-02-12T16:20:47;8.13;73.60
78490;DHT22;67776;52.012;4.736;2023-02-12T16:23:14;8.22;73.40
78490;DHT22;67776;52.012;4.736;2023-02-12T16:25:39;8.25;72.16
78490;DHT22;67776;52.012;4.736;2023-02-12T16:28:17;8.28;72.48
78490;DHT22;67776;52.012;4.736;2023-02-12T16:30:48;8.21;71.70
78490;DHT22;67776;52.012;4.736;2023-02-12T16:46:32;8.05;72.88
78490;DHT22;67776;52.012;4.736;2023-02-12T16:48:59;8.09;73.72
78490;DHT22;67776;52.012;4.736;2023-02-12T16:53:53;8.02;73.26
78490;DHT22;67776;52.012;4.736;2023-02-12T16:56:23;8.06;74.51
78490;DHT22;67776;52.012;4.736;2023-02-12T16:58:50;8.05;74.07
78490;DHT22;67776;52.012;4.736;2023-02-12T17:01:36;8.05;73.03
78490;DHT22;67776;52.012;4.736;2023-02-12T17:04:06;8.02;73.96
78490;DHT22;67776;52.012;4.736;2023-02-12T17:06:32;8.02;74.00
78490;DHT22;67776;52.012;4.736;2023-02-12T17:08:58;8.05;70.71
78490;DHT22;67776;52.012;4.736;2023-02-12T17:11:24;8.08;71.52
78490;DHT22;67776;52.012;4.736;2023-02-12T17:13:52;8.05;71.91
78490;DHT22;67776;52.012;4.736;2023-02-12T17:16:18;8.01;72.96
78490;DHT22;67776;52.012;4.736;2023-02-12T17:18:44;8.01;73.24
78490;DHT22;67776;52.012;4.736;2023-02-12T17:21:15;8.02;73.41
78490;DHT22;67776;52.012;4.736;2023-02-12T17:23:44;7.97;73.30
78490;DHT22;67776;52.012;4.736;2023-02-12T17:26:09;7.92;73.47
78490;DHT22;67776;52.012;4.736;2023-02-12T17:28:36;7.94;73.62
78490;DHT22;67776;52.012;4.736;2023-02-12T17:31:02;7.94;74.20
78490;DHT22;67776;52.012;4.736;2023-02-12T17:33:30;7.90;74.33
78490;DHT22;67776;52.012;4.736;2023-02-12T17:35:57;7.92;74.66
78490;DHT22;67776;52.012;4.736;2023-02-12T17:38:23;7.91;75.12
78490;DHT22;67776;52.012;4.736;2023-02-12T17:40:48;7.87;73.75
78490;DHT22;67776;52.012;4.736;2023-02-12T17:43:14;7.84;74.01
78490;DHT22;67776;52.012;4.736;2023-02-12T17:45:41;7.90;72.08
78490;DHT22;67776;52.012;4.736;2023-02-12T17:48:18;7.97;70.99
78490;DHT22;67776;52.012;4.736;2023-02-12T17:50:53;8.01;70.69
78490;DHT22;67776;52.012;4.736;2023-02-12T17:53:20;8.04;70.73
78490;DHT22;67776;52.012;4.736;2023-02-12T17:55:45;8.06;70.52
78490;DHT22;67776;52.012;4.736;2023-02-12T17:58:10;8.06;70.65
78490;DHT22;67776;52.012;4.736;2023-02-12T18:00:36;8.01;70.80
78490;DHT22;67776;52.012;4.736;2023-02-12T18:03:01;7.98;72.00
78490;DHT22;67776;52.012;4.736;2023-02-12T18:05:26;7.97;72.73
78490;DHT22;67776;52.012;4.736;2023-02-12T18:07:52;7.98;73.08
78490;DHT22;67776;52.012;4.736;2023-02-12T18:10:18;7.97;73.59
78490;DHT22;67776;52.012;4.736;2023-02-12T18:12:43;7.85;73.40
78490;DHT22;67776;52.012;4.736;2023-02-12T18:15:09;7.81;73.72
78490;DHT22;67776;52.012;4.736;2023-02-12T18:17:35;7.85;73.14
78490;DHT22;67776;52.012;4.736;2023-02-12T18:20:01;7.91;73.22
78490;DHT22;67776;52.012;4.736;2023-02-12T18:22:26;7.90;73.51
78490;DHT22;67776;52.012;4.736;2023-02-12T18:24:52;7.91;73.22
78490;DHT22;67776;52.012;4.736;2023-02-12T18:27:18;7.91;74.07
78490;DHT22;67776;52.012;4.736;2023-02-12T18:29:43;7.71;76.12
78490;DHT22;67776;52.012;4.736;2023-02-12T18:32:09;7.74;75.94
78490;DHT22;67776;52.012;4.736;2023-02-12T18:34:39;7.66;76.13
78490;DHT22;67776;52.012;4.736;2023-02-12T18:37:04;7.69;74.80
78490;DHT22;67776;52.012;4.736;2023-02-12T18:39:30;7.71;74.29
78490;DHT22;67776;52.012;4.736;2023-02-12T18:41:55;7.73;74.41
78490;DHT22;67776;52.012;4.736;2023-02-12T18:44:21;7.75;74.96
78490;DHT22;67776;52.012;4.736;2023-02-12T18:46:49;7.78;75.49
78490;DHT22;67776;52.012;4.736;2023-02-12T18:49:15;7.77;75.47
78490;DHT22;67776;52.012;4.736;2023-02-12T18:51:40;7.77;75.46
78490;DHT22;67776;52.012;4.736;2023-02-12T18:54:10;7.74;75.81